sensor_id;sensor_type;location;lat;lon;timestamp;P1;durP1;ratioP1;P2;durP2;ratioP2
13687;SDS011;6916;51.504;7.416;2023-02-28T00:08:47;2.70;;;1.50;;
13687;SDS011;6916;51.504;7.416;2023-02-28T00:18:49;3.13;;;1.80;;
13687;SDS011;6916;51.504;7.416;2023-02-28T00:28:52;4.10;;;2.00;;
13687;SDS011;6916;51.504;7.416;2023-02-28T00:38:54;2.57;;;1.83;;
13687;SDS011;6916;51.504;7.416;2023-02-28T00:49:02;2.00;;;1.60;;
13687;SDS011;6916;51.504;7.416;2023-02-28T00:59:04;3.23;;;1.97;;
13687;SDS011;6916;51.504;7.416;2023-02-28T01:09:06;3.80;;;1.67;;
13687;SDS011;6916;51.504;7.416;2023-02-28T01:19:10;2.23;;;1.80;;
13687;SDS011;6916;51.504;7.416;2023-02-28T01:29:12;2.03;;;1.30;;
13687;SDS011;6916;51.504;7.416;2023-02-28T01:39:16;2.87;;;1.37;;
13687;SDS011;6916;51.504;7.416;2023-02-28T01:49:18;1.93;;;1.50;;
13687;SDS011;6916;51.504;7.416;2023-02-28T01:59:29;1.67;;;1.17;;
13687;SDS011;6916;51.504;7.416;2023-02-28T02:10:02;2.33;;;1.77;;
13687;SDS011;6916;51.504;7.416;2023-02-28T02:41:25;3.13;;;1.37;;
13687;SDS011;6916;51.504;7.416;2023-02-28T02:51:31;2.97;;;1.53;;
13687;SDS011;6916;51.504;7.416;2023-02-28T03:01:35;1.60;;;1.30;;
13687;SDS011;6916;51.504;7.416;2023-02-28T03:11:39;2.80;;;1.20;;
13687;SDS011;6916;51.504;7.416;2023-02-28T03:32:07;1.53;;;1.07;;
13687;SDS011;6916;51.504;7.416;2023-02-28T03:42:20;1.83;;;1.37;;
13687;SDS011;6916;51.504;7.416;2023-02-28T03:52:25;2.87;;;1.40;;
13687;SDS011;6916;51.504;7.416;2023-02-28T04:02:29;1.20;;;1.10;;
13687;SDS011;6916;51.504;7.416;2023-02-28T04:12:32;1.90;;;1.47;;
13687;SDS011;6916;51.504;7.416;2023-02-28T04:22:34;2.27;;;1.37;;
13687;SDS011;6916;51.504;7.416;2023-02-28T04:32:37;3.87;;;2.20;;
13687;SDS011;6916;51.504;7.416;2023-02-28T04:42:41;3.43;;;1.73;;
13687;SDS011;6916;51.504;7.416;2023-02-28T04:52:43;1.70;;;1.60;;
13687;SDS011;6916;51.504;7.416;2023-02-28T05:02:46;1.90;;;1.70;;
13687;SDS011;6916;51.504;7.416;2023-02-28T05:12:48;2.97;;;1.40;;
13687;SDS011;6916;51.504;7.416;2023-02-28T05:22:50;3.47;;;1.90;;
13687;SDS011;6916;51.504;7.416;2023-02-28T05:32:54;2.97;;;2.03;;
13687;SDS011;6916;51.504;7.416;2023-02-28T05:42:56;3.27;;;1.50;;
13687;SDS011;6916;51.504;7.416;2023-02-28T05:53:00;2.27;;;1.30;;
13687;SDS011;6916;51.504;7.416;2023-02-28T06:03:02;3.47;;;1.40;;
13687;SDS011;6916;51.504;7.416;2023-02-28T06:13:04;3.83;;;1.20;;
13687;SDS011;6916;51.504;7.416;2023-02-28T06:23:07;1.77;;;1.10;;
13687;SDS011;6916;51.504;7.416;2023-02-28T06:33:09;3.33;;;1.47;;
13687;SDS011;6916;51.504;7.416;2023-02-28T06:43:11;1.90;;;1.00;;
13687;SDS011;6916;51.504;7.416;2023-02-28T06:53:15;2.10;;;2.00;;
13687;SDS011;6916;51.504;7.416;2023-02-28T07:03:18;3.20;;;1.27;;
13687;SDS011;6916;51.504;7.416;2023-02-28T07:13:21;5.00;;;2.10;;
13687;SDS011;6916;51.504;7.416;2023-02-28T07:23:25;3.50;;;2.13;;
13687;SDS011;6916;51.504;7.416;2023-02-28T07:33:28;5.53;;;2.37;;
13687;SDS011;6916;51.504;7.416;2023-02-28T07:43:30;4.17;;;2.00;;
13687;SDS011;6916;51.504;7.416;2023-02-28T07:53:33;3.70;;;2.40;;
13687;SDS011;6916;51.504;7.416;2023-02-28T08:03:35;1.60;;;1.47;;
13687;SDS011;6916;51.504;7.416;2023-02-28T08:13:38;3.03;;;2.00;;
13687;SDS011;6916;51.504;7.416;2023-02-28T08:23:40;2.07;;;1.53;;
13687;SDS011;6916;51.504;7.416;2023-02-28T08:33:42;3.70;;;1.50;;
13687;SDS011;6916;51.504;7.416;2023-02-28T08:43:46;4.17;;;1.50;;
13687;SDS011;6916;51.504;7.416;2023-02-28T08:53:48;2.27;;;1.87;;
13687;SDS011;6916;51.504;7.416;2023-02-28T09:03:51;1.10;;;1.00;;
13687;SDS011;6916;51.504;7.416;2023-02-28T09:13:53;1.63;;;0.90;;
13687;SDS011;6916;51.504;7.416;2023-02-28T09:23:57;3.53;;;1.30;;
13687;SDS011;6916;51.504;7.416;2023-02-28T09:33:59;2.40;;;0.83;;
13687;SDS011;6916;51.504;7.416;2023-02-28T09:44:02;1.83;;;1.20;;
13687;SDS011;6916;51.504;7.416;2023-02-28T09:54:08;3.70;;;0.63;;
13687;SDS011;6916;51.504;7.416;2023-02-28T10:04:16;1.57;;;0.83;;
13687;SDS011;6916;51.504;7.416;2023-02-28T10:14:26;0.83;;;0.50;;
13687;SDS011;6916;51.504;7.416;2023-02-28T10:34:53;1.80;;;0.60;;
13687;SDS011;6916;51.504;7.416;2023-02-28T10:45:12;1.83;;;0.90;;
13687;SDS011;6916;51.504;7.416;2023-02-28T10:55:20;0.77;;;0.50;;
13687;SDS011;6916;51.504;7.416;2023-02-28T11:05:26;0.40;;;0.40;;
13687;SDS011;6916;51.504;7.416;2023-02-28T11:15:33;0.70;;;0.70;;
13687;SDS011;6916;51.504;7.416;2023-02-28T11:25:36;1.00;;;0.63;;
13687;SDS011;6916;51.504;7.416;2023-02-28T11:35:39;1.57;;;0.50;;
13687;SDS011;6916;51.504;7.416;2023-02-28T11:45:52;1.87;;;0.80;;
13687;SDS011;6916;51.504;7.416;2023-02-28T12:06:40;0.90;;;0.50;;
13687;SDS011;6916;51.504;7.416;2023-02-28T12:17:06;2.13;;;0.90;;
13687;SDS011;6916;51.504;7.416;2023-02-28T12:27:13;1.70;;;0.90;;
13687;SDS011;6916;51.504;7.416;2023-02-28T12:37:19;1.33;;;0.93;;
13687;SDS011;6916;51.504;7.416;2023-02-28T12:47:29;2.30;;;1.17;;
13687;SDS011;6916;51.504;7.416;2023-02-28T13:17:52;1.87;;;1.63;;
13687;SDS011;6916;51.504;7.416;2023-02-28T13:27:56;2.10;;;1.13;;
13687;SDS011;6916;51.504;7.416;2023-02-28T13:38:09;1.70;;;1.30;;
13687;SDS011;6916;51.504;7.416;2023-02-28T13:48:15;1.87;;;1.17;;
13687;SDS011;6916;51.504;7.416;2023-02-28T14:08:42;2.00;;;1.33;;
13687;SDS011;6916;51.504;7.416;2023-02-28T14:39:13;1.97;;;1.30;;
13687;SDS011;6916;51.504;7.416;2023-02-28T14:49:29;1.63;;;1.50;;
13687;SDS011;6916;51.504;7.416;2023-02-28T15:00:36;2.83;;;1.53;;
13687;SDS011;6916;51.504;7.416;2023-02-28T15:10:24;1.70;;;1.30;;
13687;SDS011;6916;51.504;7.416;2023-02-28T15:20:27;2.43;;;1.70;;
13687;SDS011;6916;51.504;7.416;2023-02-28T15:30:30;3.53;;;2.47;;
13687;SDS011;6916;51.504;7.416;2023-02-28T15:40:38;2.27;;;1.63;;
13687;SDS011;6916;51.504;7.416;2023-02-28T15:50:43;3.87;;;1.60;;
13687;SDS011;6916;51.504;7.416;2023-02-28T16:00:59;1.63;;;1.53;;
13687;SDS011;6916;51.504;7.416;2023-02-28T16:11:09;1.70;;;1.60;;
13687;SDS011;6916;51.504;7.416;2023-02-28T16:21:12;2.63;;;1.87;;
13687;SDS011;6916;51.504;7.416;2023-02-28T16:31:14;1.73;;;1.43;;
13687;SDS011;6916;51.504;7.416;2023-02-28T16:41:19;2.87;;;1.30;;
13687;SDS011;6916;51.504;7.416;2023-02-28T16:51:24;2.30;;;2.07;;
13687;SDS011;6916;51.504;7.416;2023-02-28T17:01:26;4.23;;;1.60;;
13687;SDS011;6916;51.504;7.416;2023-02-28T17:11:30;2.83;;;2.00;;
13687;SDS011;6916;51.504;7.416;2023-02-28T17:21:33;3.53;;;1.70;;
13687;SDS011;6916;51.504;7.416;2023-02-28T17:31:36;2.73;;;2.40;;
13687;SDS011;6916;51.504;7.416;2023-02-28T17:41:42;4.60;;;2.73;;
13687;SDS011;6916;51.504;7.416;2023-02-28T17:51:47;4.03;;;3.07;;
13687;SDS011;6916;51.504;7.416;2023-02-28T18:01:50;3.17;;;1.90;;
13687;SDS011;6916;51.504;7.416;2023-02-28T18:11:53;4.97;;;2.50;;
13687;SDS011;6916;51.504;7.416;2023-02-28T18:21:56;5.60;;;2.57;;
13687;SDS011;6916;51.504;7.416;2023-02-28T18:31:59;2.90;;;2.23;;
13687;SDS011;6916;51.504;7.416;2023-02-28T18:42:03;4.33;;;3.50;;
13687;SDS011;6916;51.504;7.416;2023-02-28T18:52:06;6.13;;;4.07;;
13687;SDS011;6916;51.504;7.416;2023-02-28T19:02:08;6.93;;;5.70;;
13687;SDS011;6916;51.504;7.416;2023-02-28T19:12:12;8.10;;;5.03;;
13687;SDS011;6916;51.504;7.416;2023-02-28T19:22:19;7.63;;;6.07;;
13687;SDS011;6916;51.504;7.416;2023-02-28T19:32:21;7.33;;;6.20;;
13687;SDS011;6916;51.504;7.416;2023-02-28T19:42:24;10.87;;;6.67;;
13687;SDS011;6916;51.504;7.416;2023-02-28T19:52:29;12.87;;;7.67;;
13687;SDS011;6916;51.504;7.416;2023-02-28T20:02:32;10.43;;;5.40;;
13687;SDS011;6916;51.504;7.416;2023-02-28T20:12:34;10.30;;;7.00;;
13687;SDS011;6916;51.504;7.416;2023-02-28T20:22:37;7.20;;;6.43;;
13687;SDS011;6916;51.504;7.416;2023-02-28T20:32:40;9.30;;;6.63;;
13687;SDS011;6916;51.504;7.416;2023-02-28T20:42:42;10.37;;;6.47;;
13687;SDS011;6916;51.504;7.416;2023-02-28T20:52:44;10.67;;;6.13;;
13687;SDS011;6916;51.504;7.416;2023-02-28T21:02:47;7.50;;;4.33;;
13687;SDS011;6916;51.504;7.416;2023-02-28T21:12:49;7.53;;;5.40;;
13687;SDS011;6916;51.504;7.416;2023-02-28T21:22:54;9.83;;;4.00;;
